createdAt,value
2019-05-26T00:02:42.676Z,99.90
2019-05-26T00:06:05.754Z,99.90
2019-05-26T00:09:28.863Z,99.90
2019-05-26T00:12:51.973Z,99.90
2019-05-26T00:16:15.258Z,99.90
2019-05-26T00:19:38.446Z,99.90
2019-05-26T00:23:01.560Z,99.90
2019-05-26T00:26:24.667Z,99.90
2019-05-26T00:29:47.922Z,99.90
2019-05-26T00:33:11.231Z,99.90
2019-05-26T00:36:34.461Z,99.90
2019-05-26T00:39:57.891Z,99.90
2019-05-26T00:43:21.039Z,99.90
2019-05-26T00:46:44.118Z,99.90
2019-05-26T00:50:07.727Z,99.90
2019-05-26T00:53:30.852Z,99.90
2019-05-26T00:56:54.060Z,99.90
2019-05-26T01:00:40.290Z,99.90
2019-05-26T01:04:03.889Z,99.90
2019-05-26T01:07:27.084Z,99.90
2019-05-26T01:10:50.257Z,99.90
2019-05-26T01:14:13.458Z,99.90
2019-05-26T01:17:36.803Z,99.90
2019-05-26T01:21:00.037Z,99.90
2019-05-26T01:24:23.214Z,99.90
2019-05-26T01:27:46.306Z,99.90
2019-05-26T01:31:09.513Z,99.90
2019-05-26T01:34:33.762Z,99.90
2019-05-26T01:38:22.539Z,99.90
2019-05-26T01:41:31.525Z,99.90
2019-05-26T01:44:55.976Z,99.90
2019-05-26T01:48:19.227Z,99.90
2019-05-26T01:51:42.458Z,99.90
2019-05-26T01:55:05.731Z,99.90
2019-05-26T01:58:29.850Z,99.90
2019-05-26T02:01:53.385Z,99.90
2019-05-26T02:05:16.474Z,99.90
2019-05-26T02:08:40.027Z,99.90
2019-05-26T02:12:03.774Z,99.90
2019-05-26T02:15:29.035Z,99.90
2019-05-26T02:18:52.229Z,99.90
2019-05-26T02:22:15.364Z,99.90
2019-05-26T02:25:39.479Z,99.90
2019-05-26T02:29:02.615Z,99.90
2019-05-26T02:32:25.730Z,99.90
2019-05-26T02:35:48.863Z,99.90
2019-05-26T02:39:12.146Z,99.90
2019-05-26T02:42:35.323Z,99.90
2019-05-26T02:45:58.450Z,99.90
2019-05-26T02:49:21.856Z,99.90
2019-05-26T02:52:44.960Z,99.90
2019-05-26T02:56:09.315Z,99.90
2019-05-26T02:59:32.432Z,99.90
2019-05-26T03:02:55.803Z,99.90
2019-05-26T03:06:20.454Z,99.90
2019-05-26T03:09:44.228Z,99.90
2019-05-26T03:13:08.296Z,99.90
2019-05-26T03:16:35.170Z,99.90
2019-05-26T03:20:01.369Z,99.90
2019-05-26T03:23:29.273Z,99.90
2019-05-26T03:26:52.338Z,99.90
2019-05-26T03:30:16.391Z,99.90
2019-05-26T03:33:40.103Z,99.90
2019-05-26T03:37:03.365Z,99.90
2019-05-26T03:40:26.572Z,99.90
2019-05-26T03:43:49.642Z,99.90
2019-05-26T03:47:16.563Z,99.90
2019-05-26T03:50:38.586Z,99.90
2019-05-26T03:54:01.742Z,99.90
2019-05-26T03:57:24.796Z,99.90
2019-05-26T04:00:48.032Z,99.90
2019-05-26T04:04:11.172Z,99.90
2019-05-26T04:07:34.370Z,99.90
2019-05-26T04:10:57.415Z,99.90
2019-05-26T04:14:21.263Z,99.90
2019-05-26T04:17:44.500Z,99.90
2019-05-26T04:21:07.923Z,99.90
2019-05-26T04:24:33.027Z,99.90
2019-05-26T04:27:57.275Z,99.90
2019-05-26T04:31:20.484Z,99.90
2019-05-26T04:34:43.563Z,99.90
2019-05-26T04:38:06.698Z,99.90
2019-05-26T04:41:29.840Z,99.90
2019-05-26T04:44:55.553Z,99.90
2019-05-26T04:48:18.590Z,99.90
2019-05-26T04:51:41.730Z,99.90
2019-05-26T04:55:08.022Z,99.90
2019-05-26T04:58:31.136Z,99.90
2019-05-26T05:01:54.400Z,99.90
2019-05-26T05:05:17.497Z,99.90
2019-05-26T05:08:40.667Z,99.90
2019-05-26T05:12:03.781Z,99.90
2019-05-26T05:15:27.000Z,99.90
2019-05-26T05:18:50.303Z,99.90
2019-05-26T05:22:13.502Z,99.90
2019-05-26T05:25:37.589Z,99.90
2019-05-26T05:29:01.025Z,99.90
2019-05-26T05:32:24.670Z,99.90
2019-05-26T05:35:47.676Z,99.90
2019-05-26T05:39:11.031Z,99.90
2019-05-26T05:42:34.176Z,99.90
2019-05-26T05:45:57.366Z,99.90
2019-05-26T05:49:20.545Z,99.90
2019-05-26T05:52:43.724Z,99.90
2019-05-26T05:56:07.437Z,99.90
2019-05-26T05:59:31.049Z,99.90
2019-05-26T06:02:54.456Z,99.90
2019-05-26T06:06:17.561Z,99.90
2019-05-26T06:09:40.803Z,99.90
2019-05-26T06:13:04.450Z,99.90
2019-05-26T06:16:27.850Z,99.90
2019-05-26T06:19:51.305Z,99.90
2019-05-26T06:23:14.657Z,99.90
2019-05-26T06:26:37.790Z,99.90
2019-05-26T06:30:01.093Z,99.90
2019-05-26T06:33:24.146Z,99.90
2019-05-26T06:36:47.419Z,99.90
2019-05-26T06:40:11.752Z,99.90
2019-05-26T06:43:34.962Z,99.90
2019-05-26T06:46:58.021Z,99.90
2019-05-26T06:50:21.806Z,99.90
2019-05-26T06:53:45.454Z,99.90
2019-05-26T06:57:08.707Z,99.90
2019-05-26T07:00:31.995Z,99.90
2019-05-26T07:03:55.253Z,99.90
2019-05-26T07:07:18.817Z,99.90
2019-05-26T07:10:42.047Z,99.90
2019-05-26T07:14:05.271Z,99.90
2019-05-26T07:17:28.444Z,99.90
2019-05-26T07:20:51.752Z,99.90
2019-05-26T07:24:15.176Z,99.90
2019-05-26T07:27:38.293Z,99.90
2019-05-26T07:31:01.502Z,99.90
2019-05-26T07:34:24.978Z,99.90
2019-05-26T07:37:48.206Z,99.90
2019-05-26T07:41:11.504Z,99.90
2019-05-26T07:44:34.867Z,99.90
2019-05-26T07:47:57.944Z,99.90
2019-05-26T07:51:21.153Z,99.90
2019-05-26T07:54:44.303Z,99.90
2019-05-26T07:58:08.531Z,99.90
2019-05-26T08:01:36.041Z,99.90
2019-05-26T08:04:58.191Z,99.90
2019-05-26T08:08:21.371Z,99.90
2019-05-26T08:11:44.625Z,99.90
2019-05-26T08:15:08.200Z,99.90
2019-05-26T08:18:31.744Z,99.90
2019-05-26T08:21:54.925Z,99.90
2019-05-26T08:25:18.200Z,99.90
2019-05-26T08:28:41.299Z,99.90
2019-05-26T08:32:04.493Z,99.90
2019-05-26T08:35:27.594Z,99.90
2019-05-26T08:38:50.880Z,99.90
2019-05-26T08:42:26.230Z,99.90
2019-05-26T08:45:39.115Z,99.90
2019-05-26T08:49:04.004Z,99.90
2019-05-26T08:52:27.111Z,99.90
2019-05-26T08:55:50.316Z,99.90
2019-05-26T08:59:13.646Z,99.90
2019-05-26T09:02:36.865Z,99.90
2019-05-26T09:06:00.196Z,99.90
2019-05-26T09:09:23.305Z,99.90
2019-05-26T09:12:59.761Z,99.90
2019-05-26T09:16:11.445Z,99.90
2019-05-26T09:19:34.760Z,99.90
2019-05-26T09:22:58.306Z,99.90
2019-05-26T09:26:22.515Z,99.90
2019-05-26T09:29:45.654Z,99.90
2019-05-26T09:33:09.091Z,99.90
2019-05-26T09:36:32.189Z,99.90
2019-05-26T09:39:55.417Z,99.90
2019-05-26T09:43:18.660Z,99.90
2019-05-26T09:46:42.066Z,99.90
2019-05-26T09:50:06.680Z,99.90
2019-05-26T09:53:30.028Z,99.90
2019-05-26T09:56:53.136Z,99.90
2019-05-26T10:00:16.636Z,99.90
2019-05-26T10:03:39.815Z,99.90
2019-05-26T10:07:03.030Z,99.90
2019-05-26T10:10:26.287Z,99.90
2019-05-26T10:13:49.577Z,99.90
2019-05-26T10:17:12.729Z,99.90
2019-05-26T10:20:35.839Z,99.90
2019-05-26T10:23:59.309Z,99.90
2019-05-26T10:27:22.503Z,99.90
2019-05-26T10:30:45.700Z,99.90
2019-05-26T10:34:08.769Z,99.90
2019-05-26T10:37:31.875Z,99.90
2019-05-26T10:40:55.038Z,99.90
2019-05-26T10:44:18.322Z,99.90
2019-05-26T10:47:41.537Z,99.90
2019-05-26T10:51:06.847Z,99.90
2019-05-26T10:54:29.786Z,99.90
2019-05-26T10:57:53.041Z,99.90
2019-05-26T11:01:16.281Z,99.90
2019-05-26T11:04:39.609Z,99.90
2019-05-26T11:08:02.825Z,99.90
2019-05-26T11:11:26.380Z,99.90
2019-05-26T11:14:49.812Z,99.90
2019-05-26T11:18:12.917Z,99.90
2019-05-26T11:21:36.056Z,99.90
2019-05-26T11:24:59.285Z,99.90
2019-05-26T11:28:22.514Z,99.90
2019-05-26T11:31:45.947Z,99.90
2019-05-26T11:35:10.132Z,99.90
2019-05-26T11:38:33.886Z,99.90
2019-05-26T11:42:10.567Z,99.90
2019-05-26T11:45:22.260Z,99.90
2019-05-26T11:48:45.704Z,99.90
2019-05-26T11:52:09.239Z,99.90
2019-05-26T11:55:32.517Z,99.90
2019-05-26T11:58:55.619Z,99.90
2019-05-26T12:02:18.716Z,99.90
2019-05-26T12:05:43.283Z,99.90
2019-05-26T12:09:08.022Z,99.90
2019-05-26T12:12:31.102Z,99.90
2019-05-26T12:15:54.298Z,99.90
2019-05-26T12:19:17.529Z,99.90
2019-05-26T12:22:40.804Z,99.90
2019-05-26T12:26:04.062Z,99.90
2019-05-26T12:29:28.618Z,99.90
2019-05-26T12:32:52.000Z,99.90
2019-05-26T12:36:15.780Z,99.90
2019-05-26T12:39:41.191Z,99.90
2019-05-26T12:43:04.471Z,99.90
2019-05-26T12:46:27.752Z,99.90
2019-05-26T12:49:51.070Z,99.90
2019-05-26T12:53:14.495Z,99.90
2019-05-26T12:56:37.805Z,99.90
2019-05-26T13:00:00.924Z,99.90
2019-05-26T13:03:24.231Z,99.90
2019-05-26T13:06:47.362Z,98.50
2019-05-26T13:10:11.747Z,98.60
2019-05-26T13:13:35.216Z,98.30
2019-05-26T13:17:01.419Z,96.30
2019-05-26T13:20:23.629Z,96.10
2019-05-26T13:23:46.733Z,95.50
2019-05-26T13:27:10.129Z,95.80
2019-05-26T13:30:33.555Z,95.80
2019-05-26T13:33:57.316Z,95.70
2019-05-26T13:37:20.534Z,96.10
2019-05-26T13:40:45.125Z,97.40
2019-05-26T13:44:08.263Z,97.50
2019-05-26T13:47:31.657Z,98.00
2019-05-26T13:50:54.864Z,97.00
2019-05-26T13:54:21.595Z,97.10
2019-05-26T13:57:49.547Z,96.60
2019-05-26T14:01:13.325Z,97.80
2019-05-26T14:04:36.513Z,97.40
2019-05-26T14:08:02.475Z,97.90
2019-05-26T14:11:25.652Z,98.20
2019-05-26T14:14:49.356Z,97.50
2019-05-26T14:18:18.366Z,97.40
2019-05-26T14:21:41.443Z,96.60
2019-05-26T14:25:05.049Z,96.70
2019-05-26T14:28:28.082Z,97.30
2019-05-26T14:31:52.886Z,97.40
2019-05-26T14:35:15.826Z,97.40
2019-05-26T14:38:43.209Z,98.30
2019-05-26T14:42:04.113Z,97.80
2019-05-26T14:45:27.401Z,97.80
2019-05-26T14:48:50.942Z,97.40
2019-05-26T14:52:14.358Z,98.40
2019-05-26T14:55:37.559Z,98.70
2019-05-26T14:59:00.806Z,99.10
2019-05-26T15:02:24.151Z,99.30
2019-05-26T15:05:47.246Z,99.90
2019-05-26T15:09:24.288Z,99.90
2019-05-26T15:12:35.475Z,99.90
2019-05-26T15:16:09.195Z,99.90
2019-05-26T15:19:23.686Z,99.80
2019-05-26T15:22:46.780Z,99.90
2019-05-26T15:26:10.139Z,99.90
2019-05-26T15:29:33.435Z,99.90
2019-05-26T15:32:56.957Z,99.90
2019-05-26T15:36:20.648Z,99.90
2019-05-26T15:39:43.881Z,99.90
2019-05-26T15:43:08.044Z,99.90
2019-05-26T15:46:31.306Z,99.90
2019-05-26T15:49:54.643Z,99.90
2019-05-26T15:53:18.176Z,99.90
2019-05-26T15:56:41.750Z,99.90
2019-05-26T16:00:05.669Z,99.90
2019-05-26T16:03:29.262Z,99.90
2019-05-26T16:06:52.761Z,99.90
2019-05-26T16:10:16.038Z,99.90
2019-05-26T16:13:42.252Z,99.90
2019-05-26T16:17:09.473Z,99.90
2019-05-26T16:20:32.766Z,99.90
2019-05-26T16:23:56.054Z,99.90
2019-05-26T16:27:20.019Z,99.90
2019-05-26T16:30:43.402Z,99.90
2019-05-26T16:34:06.816Z,99.90
2019-05-26T16:37:34.247Z,99.90
2019-05-26T16:40:57.732Z,99.90
2019-05-26T16:44:21.562Z,99.90
2019-05-26T16:47:44.877Z,99.90
2019-05-26T16:51:08.516Z,99.90
2019-05-26T16:54:32.249Z,99.90
2019-05-26T16:57:55.439Z,99.90
2019-05-26T17:01:23.848Z,99.90
2019-05-26T17:04:47.571Z,99.90
2019-05-26T17:08:10.997Z,99.90
2019-05-26T17:11:34.173Z,99.90
2019-05-26T17:14:57.418Z,99.90
2019-05-26T17:18:21.469Z,99.90
2019-05-26T17:21:44.793Z,99.90
2019-05-26T17:25:08.194Z,99.90
2019-05-26T17:28:31.578Z,99.90
2019-05-26T17:31:54.762Z,99.90
2019-05-26T17:35:19.140Z,99.90
2019-05-26T17:38:42.602Z,99.90
2019-05-26T17:42:05.971Z,99.90
2019-05-26T17:45:29.398Z,99.90
2019-05-26T17:48:52.709Z,99.90
2019-05-26T17:52:16.450Z,99.90
2019-05-26T17:55:40.015Z,99.90
2019-05-26T17:59:04.675Z,99.90
2019-05-26T18:02:29.361Z,99.90
2019-05-26T18:05:52.950Z,99.90
2019-05-26T18:09:16.475Z,99.90
2019-05-26T18:12:39.733Z,99.90
2019-05-26T18:16:02.952Z,99.90
2019-05-26T18:19:29.963Z,99.90
2019-05-26T18:22:53.736Z,99.90
2019-05-26T18:26:18.734Z,99.90
2019-05-26T18:29:44.143Z,99.90
2019-05-26T18:33:07.500Z,99.90
2019-05-26T18:36:30.635Z,99.90
2019-05-26T18:39:54.086Z,99.90
2019-05-26T18:43:17.344Z,99.90
2019-05-26T18:46:43.414Z,99.90
2019-05-26T18:50:07.218Z,99.90
2019-05-26T18:53:30.571Z,99.90
2019-05-26T18:56:54.089Z,99.90
2019-05-26T19:00:17.521Z,99.90
2019-05-26T19:03:44.038Z,99.90
2019-05-26T19:07:07.573Z,99.90
2019-05-26T19:10:31.098Z,99.90
2019-05-26T19:13:54.574Z,99.90
2019-05-26T19:17:18.957Z,99.90
2019-05-26T19:20:42.589Z,99.90
2019-05-26T19:24:06.320Z,99.90
2019-05-26T19:27:29.703Z,99.90
2019-05-26T19:30:53.278Z,99.90
2019-05-26T19:34:16.767Z,99.90
2019-05-26T19:37:42.503Z,99.90
2019-05-26T19:41:06.437Z,99.90
2019-05-26T19:44:30.377Z,99.90
2019-05-26T19:47:53.775Z,99.90
2019-05-26T19:51:17.099Z,99.90
2019-05-26T19:54:40.543Z,99.90
2019-05-26T19:58:04.295Z,99.90
2019-05-26T20:01:28.306Z,99.90
2019-05-26T20:04:51.452Z,99.90
2019-05-26T20:08:19.623Z,99.90
2019-05-26T20:11:42.868Z,99.90
2019-05-26T20:15:08.930Z,99.90
2019-05-26T20:18:32.254Z,99.90
2019-05-26T20:21:56.467Z,99.90
2019-05-26T20:25:19.738Z,99.90
2019-05-26T20:28:43.021Z,99.90
2019-05-26T20:32:06.181Z,99.90
2019-05-26T20:35:31.383Z,99.90
2019-05-26T20:38:54.687Z,99.90
2019-05-26T20:42:18.353Z,99.90
2019-05-26T20:45:41.584Z,99.90
2019-05-26T20:49:05.152Z,99.90
2019-05-26T20:52:30.332Z,99.90
2019-05-26T20:55:54.178Z,99.90
2019-05-26T20:59:17.306Z,99.90
2019-05-26T21:02:40.592Z,99.90
2019-05-26T21:06:03.998Z,99.90
2019-05-26T21:09:27.290Z,99.90
2019-05-26T21:12:50.640Z,99.90
2019-05-26T21:16:13.981Z,99.90
2019-05-26T21:19:37.257Z,99.90
2019-05-26T21:23:00.514Z,99.90
2019-05-26T21:26:23.983Z,99.90
2019-05-26T21:29:47.347Z,99.90
2019-05-26T21:33:10.592Z,99.90
2019-05-26T21:36:33.891Z,99.90
2019-05-26T21:39:57.065Z,99.90
2019-05-26T21:43:20.176Z,99.90
2019-05-26T21:46:43.382Z,99.90
2019-05-26T21:50:07.154Z,99.90
2019-05-26T21:53:30.467Z,99.90
2019-05-26T21:56:53.618Z,99.90
2019-05-26T22:00:20.503Z,99.90
2019-05-26T22:03:45.735Z,99.90
2019-05-26T22:07:10.138Z,99.90
2019-05-26T22:10:33.435Z,99.90
2019-05-26T22:13:56.828Z,99.90
2019-05-26T22:17:20.165Z,99.90
2019-05-26T22:20:43.480Z,99.90
2019-05-26T22:24:06.749Z,99.90
2019-05-26T22:27:30.374Z,99.90
2019-05-26T22:30:53.613Z,99.90
2019-05-26T22:34:16.888Z,99.90
2019-05-26T22:37:40.154Z,99.90
2019-05-26T22:41:03.281Z,99.90
2019-05-26T22:44:26.730Z,99.90
2019-05-26T22:47:50.067Z,99.90
2019-05-26T22:51:13.257Z,99.90
2019-05-26T22:54:36.474Z,99.90
2019-05-26T22:57:59.766Z,99.90
2019-05-26T23:01:23.937Z,99.90
2019-05-26T23:04:47.532Z,99.90
2019-05-26T23:08:10.756Z,99.90
2019-05-26T23:12:19.647Z,99.90
2019-05-26T23:15:43.099Z,99.90
2019-05-26T23:19:18.837Z,99.90
2019-05-26T23:22:31.252Z,99.90
2019-05-26T23:25:54.517Z,99.90
2019-05-26T23:29:17.645Z,99.90
2019-05-26T23:32:40.947Z,99.90
2019-05-26T23:36:04.505Z,99.90
2019-05-26T23:39:27.798Z,99.90
2019-05-26T23:42:51.476Z,99.90
2019-05-26T23:46:14.583Z,99.90
2019-05-26T23:49:38.042Z,99.90
2019-05-26T23:53:01.226Z,99.90
2019-05-26T23:56:24.496Z,99.90
2019-05-26T23:59:47.735Z,99.90
